Aviation Digital Data Service (ADDS)

Output produced by METARs form (1406 UTC 21 September 2014)
found at http://aviationweather.gov/adds/metars/
 
KBAF 211329Z 2113/2212 02003KT 1/2SM FG VV002 
     FM211500 18003KT 3SM BR BKN005 
     FM211700 18005KT 6SM BR BKN015 
     FM211900 17006KT P6SM BKN035 
     FM212300 18004KT P6SM BKN020 
     FM220300 23004KT P6SM BKN250 
     FM220600 27004KT 5SM BR BKN045 
     FM220700 27004KT 6SM BR BKN250